Time;durP1;ratioP1;P1;durP2;ratioP2;P2;SDS_P1;SDS_P2;PMS_P1;PMS_P2;Temp;Humidity;BMP_temperature;BMP_pressure;BME280_temperature;BME280_humidity;BME280_pressure;Samples;Min_cycle;Max_cycle;Signal;HPM_P1;HPM_P2
2022/02/10 00:14:38;;;;;;;18.33;10.93;;;10.30;99.90;;;;;;5053121;28;20282;-81
2022/02/10 00:20:00;;;;;;;17.65;10.77;;;10.10;99.90;;;;;;5054137;28;20528;-80
2022/02/10 00:35:57;;;;;;;15.30;10.10;;;9.90;99.90;;;;;;5065473;28;20221;-82
2022/02/10 00:38:29;;;;;;;14.00;10.60;;;10.00;99.90;;;;;;5054008;28;20201;-85
2022/02/10 00:40:55;;;;;;;20.60;12.13;;;10.10;99.90;;;;;;5053912;28;20250;-85
2022/02/10 00:43:20;;;;;;;21.17;12.45;;;10.00;99.90;;;;;;5054143;28;20226;-86
2022/02/10 00:45:47;;;;;;;14.73;10.65;;;9.90;99.90;;;;;;5054396;28;20246;-86
2022/02/10 00:48:14;;;;;;;16.10;11.65;;;9.80;99.90;;;;;;5054471;28;20646;-85
2022/02/10 00:50:44;;;;;;;23.08;12.52;;;9.80;99.90;;;;;;5054164;28;20182;-85
2022/02/10 00:53:27;;;;;;;26.73;11.90;;;9.90;99.90;;;;;;5054360;28;20190;-82
2022/02/10 00:55:53;;;;;;;22.77;12.95;;;9.90;99.90;;;;;;5055557;28;20194;-85
2022/02/10 00:58:32;;;;;;;24.40;11.75;;;10.10;99.90;;;;;;5055723;28;20658;-89
2022/02/10 01:30:36;;;;;;;28.55;12.82;;;9.60;99.90;;;;;;5069870;28;20213;-78
2022/02/10 01:33:06;;;;;;;35.85;13.57;;;9.70;99.90;;;;;;5076998;28;20227;-79
2022/02/10 01:35:31;;;;;;;27.17;14.73;;;9.60;99.90;;;;;;5050910;28;20172;-80
2022/02/10 01:37:57;;;;;;;16.17;13.60;;;9.60;99.90;;;;;;5059638;28;20272;-78
2022/02/10 01:40:54;;;;;;;23.25;13.20;;;9.70;99.90;;;;;;5056117;28;20164;-79
2022/02/10 01:57:45;;;;;;;33.78;13.65;;;9.70;99.90;;;;;;5054277;28;20199;-78
2022/02/10 02:05:35;;;;;;;20.90;12.52;;;9.30;99.90;;;;;;5054474;28;20761;-77
2022/02/10 02:08:01;;;;;;;25.33;11.73;;;9.50;99.90;;;;;;5054811;28;20163;-78
2022/02/10 02:10:27;;;;;;;18.40;13.38;;;9.50;99.90;;;;;;5054692;28;20171;-78
2022/02/10 02:12:52;;;;;;;14.95;11.00;;;9.70;99.90;;;;;;5054527;28;20179;-77
2022/02/10 02:15:18;;;;;;;30.90;13.63;;;9.60;99.90;;;;;;5036589;28;20768;-78
2022/02/10 02:17:43;;;;;;;23.52;12.60;;;9.40;99.90;;;;;;5055022;28;20198;-78
2022/02/10 02:20:10;;;;;;;30.63;13.13;;;9.30;99.90;;;;;;5054712;28;20258;-78
2022/02/10 02:22:35;;;;;;;16.15;12.05;;;9.40;99.90;;;;;;5053387;28;20191;-79
2022/02/10 02:25:01;;;;;;;16.65;11.48;;;9.30;99.90;;;;;;5054297;28;20187;-78
2022/02/10 02:27:27;;;;;;;22.45;12.20;;;9.40;99.90;;;;;;5054799;28;20167;-77
2022/02/10 02:30:09;;;;;;;29.30;14.52;;;9.30;99.90;;;;;;5054129;28;20171;-78
2022/02/10 02:32:38;;;;;;;21.23;13.30;;;9.50;99.90;;;;;;5054241;28;20183;-78
2022/02/10 02:35:39;;;;;;;19.40;12.57;;;9.60;99.90;;;;;;5054226;28;20225;-77
2022/02/10 02:38:17;;;;;;;16.58;11.13;;;9.40;99.90;;;;;;5055565;28;20223;-77
2022/02/10 03:07:15;;;;;;;23.08;13.07;;;8.90;99.90;;;;;;5054014;28;20174;-77
2022/02/10 03:09:53;;;;;;;29.30;13.65;;;9.10;99.90;;;;;;5053268;28;20159;-77
2022/02/10 03:12:18;;;;;;;21.98;13.68;;;8.80;99.90;;;;;;5053375;28;20195;-77
2022/02/10 03:14:48;;;;;;;22.50;14.50;;;8.60;99.90;;;;;;5035903;28;20264;-78
2022/02/10 03:22:37;;;;;;;23.63;14.80;;;8.60;99.90;;;;;;5053703;28;20187;-78
2022/02/10 04:00:01;;;;;;;21.98;13.88;;;8.60;99.90;;;;;;5053352;28;20178;-77
2022/02/10 04:16:23;;;;;;;35.30;15.82;;;9.00;99.90;;;;;;5054039;28;20249;-78
2022/02/10 04:24:17;;;;;;;26.98;15.07;;;9.10;99.90;;;;;;5049396;28;20179;-79
2022/02/10 04:42:09;;;;;;;24.00;15.90;;;9.30;99.90;;;;;;5042108;28;20185;-77
2022/02/10 04:43:54;;;;;;;29.10;15.30;;;9.40;99.90;;;;;;5068068;28;20207;-76
2022/02/10 05:03:25;;;;;;;29.50;18.73;;;9.80;99.90;;;;;;5074784;28;20206;-77
2022/02/10 05:33:29;;;;;;;33.00;17.05;;;9.00;99.90;;;;;;5060281;28;20567;-81
2022/02/10 05:35:59;;;;;;;28.67;16.85;;;8.90;99.90;;;;;;5028758;28;20211;-81
2022/02/10 05:38:42;;;;;;;29.25;18.00;;;8.80;99.90;;;;;;5059460;28;20171;-84
2022/02/10 05:46:19;;;;;;;29.08;18.85;;;9.10;99.90;;;;;;5056172;28;20232;-80
2022/02/10 05:57:11;;;;;;;40.95;20.13;;;9.00;99.90;;;;;;5069222;28;20203;-78
2022/02/10 06:53:32;;;;;;;25.52;15.52;;;8.80;99.90;;;;;;5055609;28;20282;-78
2022/02/10 07:02:45;;;;;;;31.25;17.17;;;9.00;99.90;;;;;;5058466;28;20179;-77
2022/02/10 07:50:41;;;;;;;34.10;16.92;;;9.00;99.90;;;;;;5053893;28;20167;-77
2022/02/10 07:53:27;;;;;;;31.48;17.13;;;9.00;99.90;;;;;;5052858;28;20256;-86
2022/02/10 08:50:53;;;;;;;30.67;16.58;;;9.30;99.90;;;;;;5072319;28;21132;-87
2022/02/10 08:56:10;;;;;;;25.90;15.73;;;9.40;99.90;;;;;;5061884;28;20190;-84
2022/02/10 09:12:02;;;;;;;18.98;11.98;;;9.40;99.90;;;;;;5063070;28;20166;-84
2022/02/10 09:59:58;;;;;;;12.18;8.15;;;9.50;99.90;;;;;;5075829;28;20184;-83
2022/02/10 10:03:04;;;;;;;14.20;8.68;;;9.50;99.90;;;;;;5044650;28;20171;-88
2022/02/10 10:05:29;;;;;;;14.93;9.77;;;9.60;99.90;;;;;;5072434;28;20178;-90
2022/02/10 10:10:59;;;;;;;12.65;9.18;;;9.70;99.90;;;;;;5060752;28;20665;-89
2022/02/10 10:13:50;;;;;;;10.38;8.98;;;9.60;99.90;;;;;;5047700;28;20198;-87
2022/02/10 10:16:41;;;;;;;17.55;11.20;;;9.70;99.90;;;;;;5075054;28;20195;-85
2022/02/10 10:19:34;;;;;;;19.75;10.77;;;9.60;99.90;;;;;;5074959;28;20174;-80
2022/02/10 10:22:22;;;;;;;15.77;8.95;;;9.80;99.90;;;;;;5075323;28;20362;-91
2022/02/10 10:25:35;;;;;;;9.95;8.15;;;10.00;99.90;;;;;;5065057;28;20210;-90
2022/02/10 10:53:57;;;;;;;9.27;6.63;;;11.50;99.90;;;;;;5060780;28;20213;-91
2022/02/10 10:56:31;;;;;;;9.27;6.82;;;11.50;99.90;;;;;;5054482;28;20299;-81
2022/02/10 10:59:13;;;;;;;11.63;7.05;;;11.50;99.90;;;;;;5053162;28;20170;-87
2022/02/10 11:06:03;;;;;;;8.70;7.90;;;11.60;99.90;;;;;;5052526;28;20209;-79
2022/02/10 11:40:55;;;;;;;4.03;3.63;;;12.60;99.90;;;;;;5057460;28;20580;-80
2022/02/10 12:29:34;;;;;;;5.95;5.35;;;11.00;99.90;;;;;;5073233;28;20247;-80
2022/02/10 14:16:59;;;;;;;4.32;3.92;;;12.10;99.90;;;;;;5074691;28;20222;-86
2022/02/10 14:22:09;;;;;;;10.30;4.72;;;11.60;99.90;;;;;;5074835;28;20182;-77
2022/02/10 14:27:20;;;;;;;7.05;3.22;;;11.50;99.90;;;;;;5077607;28;20209;-76
2022/02/10 14:29:46;;;;;;;6.07;2.65;;;11.50;99.90;;;;;;5083892;28;20190;-77
2022/02/10 14:32:15;;;;;;;5.78;3.35;;;11.60;99.90;;;;;;5096599;28;20200;-77
2022/02/10 14:34:41;;;;;;;9.48;3.58;;;11.50;99.90;;;;;;5082049;28;20195;-83
2022/02/10 14:37:24;;;;;;;3.65;2.92;;;11.70;99.90;;;;;;5075067;28;20198;-81
2022/02/10 14:43:15;;;;;;;6.32;3.95;;;11.70;99.90;;;;;;5058336;28;20194;-76
2022/02/10 15:54:14;;;;;;;4.60;3.35;;;8.80;99.90;;;;;;5006874;28;20204;-88
2022/02/10 16:10:47;;;;;;;6.13;4.13;;;9.00;99.90;;;;;;5054646;28;20194;-88
2022/02/10 16:16:43;;;;;;;7.10;5.07;;;9.60;99.90;;;;;;5057623;28;20183;-83
2022/02/10 16:18:49;;;;;;;5.82;5.05;;;9.60;99.90;;;;;;5054932;28;20264;-88
2022/02/10 16:21:26;;;;;;;11.80;5.72;;;9.60;99.90;;;;;;5060400;28;20178;-79
2022/02/10 16:23:59;;;;;;;9.32;5.63;;;9.30;99.90;;;;;;5052618;28;20588;-92
2022/02/10 16:26:34;;;;;;;11.27;4.78;;;9.30;99.90;;;;;;5053306;28;20659;-81
2022/02/10 16:29:02;;;;;;;9.38;4.13;;;9.40;99.90;;;;;;5054306;28;20167;-86
2022/02/10 16:31:27;;;;;;;6.90;4.30;;;9.10;99.90;;;;;;5053267;28;20178;-79
2022/02/10 16:33:54;;;;;;;10.63;4.40;;;8.80;99.90;;;;;;5051011;28;20191;-79
2022/02/10 16:36:22;;;;;;;9.63;4.45;;;8.70;99.90;;;;;;5052462;28;20195;-78
2022/02/10 16:38:48;;;;;;;7.78;3.60;;;8.60;99.90;;;;;;5052658;28;20174;-83
2022/02/10 16:41:14;;;;;;;12.82;4.47;;;8.70;99.90;;;;;;5053469;28;20164;-81
2022/02/10 16:43:42;;;;;;;8.05;4.30;;;9.00;99.90;;;;;;5056038;28;20214;-79
2022/02/10 16:46:10;;;;;;;4.30;3.67;;;8.90;99.90;;;;;;5056526;28;20173;-77
2022/02/10 16:48:38;;;;;;;5.88;3.80;;;8.80;99.90;;;;;;5055961;28;20568;-78
2022/02/10 16:51:08;;;;;;;10.15;4.70;;;8.70;99.90;;;;;;5056542;28;20216;-79
2022/02/10 16:53:34;;;;;;;9.25;5.32;;;8.60;99.90;;;;;;5056277;28;20233;-78
2022/02/10 16:56:07;;;;;;;10.80;7.78;;;8.70;99.90;;;;;;5057808;28;20577;-77
2022/02/10 16:58:40;;;;;;;9.80;5.60;;;8.70;99.90;;;;;;5064885;28;20246;-78
2022/02/10 17:27:36;;;;;;;6.40;2.30;;;8.70;99.90;;;;;;5055774;28;20878;-77
2022/02/10 17:44:18;;;;;;;8.98;3.58;;;8.20;99.90;;;;;;5013761;28;20243;-77
2022/02/10 17:54:24;;;;;;;3.90;2.63;;;7.70;99.90;;;;;;5056847;28;20195;-77
2022/02/10 17:56:50;;;;;;;5.70;1.63;;;7.60;99.90;;;;;;5056819;28;20264;-77
2022/02/10 17:59:20;;;;;;;3.28;1.67;;;7.50;99.90;;;;;;5063313;28;20167;-77
2022/02/10 18:01:48;;;;;;;3.60;1.48;;;7.50;99.90;;;;;;5058920;28;20328;-89
2022/02/10 18:04:16;;;;;;;9.15;1.70;;;7.40;99.90;;;;;;5059190;28;20179;-81
2022/02/10 18:06:45;;;;;;;7.65;1.67;;;7.40;99.90;;;;;;5060130;28;20609;-79
2022/02/10 18:17:04;;;;;;;1.13;1.02;;;7.50;99.90;;;;;;5054752;28;20221;-85
2022/02/10 18:19:45;;;;;;;1.65;1.20;;;7.30;99.90;;;;;;5055358;28;20250;-79
2022/02/10 18:24:58;;;;;;;2.65;1.52;;;7.20;99.90;;;;;;5074775;28;20151;-83
2022/02/10 18:27:55;;;;;;;1.50;1.00;;;7.10;99.90;;;;;;5074306;28;20220;-79
2022/02/10 18:30:24;;;;;;;2.72;0.93;;;7.00;99.90;;;;;;5074571;28;20236;-77
2022/02/10 19:08:12;;;;;;;1.08;0.88;;;6.80;99.90;;;;;;5077611;28;20175;-80
2022/02/10 19:10:45;;;;;;;2.95;1.40;;;6.80;99.90;;;;;;5075108;28;20331;-84
2022/02/10 19:13:14;;;;;;;2.30;2.03;;;7.10;99.90;;;;;;5081237;28;20253;-79
2022/02/10 19:15:40;;;;;;;1.75;1.65;;;7.30;99.90;;;;;;5069529;28;20159;-80
2022/02/10 19:18:08;;;;;;;3.10;2.00;;;7.40;99.90;;;;;;5092239;28;20294;-78
2022/02/10 19:20:35;;;;;;;2.83;2.10;;;7.50;99.90;;;;;;5096746;28;20182;-79
2022/02/10 19:23:05;;;;;;;4.82;2.17;;;7.60;99.90;;;;;;5087998;28;20190;-79
2022/02/10 19:25:36;;;;;;;5.95;1.73;;;7.70;99.90;;;;;;5091464;28;20201;-81
2022/02/10 19:28:01;;;;;;;1.98;1.23;;;7.50;99.90;;;;;;5074661;28;20232;-83
2022/02/10 19:30:29;;;;;;;4.03;1.38;;;7.80;99.90;;;;;;5085351;28;20193;-79
2022/02/10 19:32:59;;;;;;;1.48;1.33;;;7.80;99.90;;;;;;5078901;28;20249;-78
2022/02/10 19:35:27;;;;;;;1.63;1.20;;;7.70;99.90;;;;;;5080033;28;20229;-77
2022/02/10 19:38:00;;;;;;;4.20;1.48;;;7.60;99.90;;;;;;5084376;28;20186;-78
2022/02/10 19:40:29;;;;;;;2.35;1.58;;;7.70;99.90;;;;;;5055418;28;20185;-83
2022/02/10 19:42:56;;;;;;;4.88;1.27;;;7.60;99.90;;;;;;5066614;28;20194;-83
2022/02/10 19:45:25;;;;;;;2.30;1.60;;;7.70;99.90;;;;;;5081496;28;20162;-78
2022/02/10 19:47:52;;;;;;;1.52;1.42;;;7.50;99.90;;;;;;5087371;28;20171;-78
2022/02/10 19:50:25;;;;;;;4.95;2.10;;;7.30;99.90;;;;;;5065841;28;20166;-77
2022/02/10 19:52:53;;;;;;;2.03;1.65;;;7.30;99.90;;;;;;5078711;28;20186;-78
2022/02/10 19:55:21;;;;;;;1.63;1.50;;;7.40;99.90;;;;;;5077227;28;20256;-78
2022/02/10 19:57:51;;;;;;;2.20;1.90;;;7.40;99.90;;;;;;5077091;28;20212;-85
2022/02/10 20:00:21;;;;;;;2.47;1.60;;;7.40;99.90;;;;;;5060452;28;20166;-82
2022/02/10 20:02:48;;;;;;;2.22;1.35;;;7.30;99.90;;;;;;5077885;28;20269;-78
2022/02/10 20:05:14;;;;;;;5.57;1.85;;;7.30;99.90;;;;;;5057577;28;20220;-84
2022/02/10 20:07:41;;;;;;;3.50;1.58;;;7.40;99.90;;;;;;5057976;28;21033;-83
2022/02/10 20:10:09;;;;;;;2.72;1.30;;;7.30;99.90;;;;;;5056603;28;20584;-78
2022/02/10 20:12:37;;;;;;;2.03;1.33;;;7.00;99.90;;;;;;5073015;28;20229;-79
2022/02/10 20:15:03;;;;;;;1.65;1.38;;;7.10;99.90;;;;;;5054941;28;20646;-79
2022/02/10 20:17:29;;;;;;;2.55;1.50;;;7.20;99.90;;;;;;5072804;28;20198;-82
2022/02/10 20:19:54;;;;;;;4.10;1.75;;;7.20;99.90;;;;;;5055045;28;20186;-79
2022/02/10 20:22:20;;;;;;;3.22;2.25;;;7.40;99.90;;;;;;5056198;28;20170;-78
2022/02/10 20:24:46;;;;;;;2.35;1.83;;;7.20;99.90;;;;;;5056797;28;20158;-85
2022/02/10 20:27:12;;;;;;;2.40;1.92;;;6.90;99.90;;;;;;5074299;28;20189;-86
2022/02/10 20:29:37;;;;;;;2.38;1.40;;;6.80;99.90;;;;;;5073946;28;20154;-86
2022/02/10 20:32:04;;;;;;;6.20;1.70;;;6.80;99.90;;;;;;5074540;28;20170;-78
2022/02/10 20:34:32;;;;;;;4.80;2.03;;;7.00;99.90;;;;;;5074672;28;20182;-79
2022/02/10 20:37:02;;;;;;;6.13;1.85;;;7.10;99.90;;;;;;5074672;28;20202;-85
2022/02/10 20:39:29;;;;;;;2.15;1.50;;;7.10;99.90;;;;;;5056915;28;20173;-82
2022/02/10 20:42:03;;;;;;;2.97;2.13;;;7.00;99.90;;;;;;5073640;28;20606;-79
2022/02/10 20:44:29;;;;;;;3.80;2.00;;;7.00;99.90;;;;;;5074200;28;20715;-81
2022/02/10 20:46:55;;;;;;;1.92;1.70;;;6.80;99.90;;;;;;5073720;28;20198;-81
2022/02/10 20:49:26;;;;;;;2.70;1.75;;;7.00;99.90;;;;;;5074375;28;20266;-79
2022/02/10 20:51:53;;;;;;;3.67;1.77;;;7.10;99.90;;;;;;5057328;28;20186;-79
2022/02/10 20:54:20;;;;;;;1.73;1.45;;;7.10;99.90;;;;;;5073559;28;20186;-84
2022/02/10 20:56:46;;;;;;;4.38;1.90;;;7.10;99.90;;;;;;5075517;28;20223;-82
2022/02/10 21:00:13;;;;;;;4.78;2.20;;;7.00;99.90;;;;;;5076763;28;20310;-79
2022/02/10 21:02:12;;;;;;;1.77;1.67;;;7.10;99.90;;;;;;5060666;28;20179;-84
2022/02/10 21:04:44;;;;;;;5.82;2.13;;;7.00;99.90;;;;;;5074244;28;20155;-84
2022/02/10 21:12:08;;;;;;;3.08;1.98;;;6.90;99.90;;;;;;5073601;28;20171;-82
2022/02/10 21:14:33;;;;;;;4.78;2.38;;;6.70;99.90;;;;;;5056210;28;20210;-80
2022/02/10 21:17:06;;;;;;;3.45;2.25;;;6.50;99.90;;;;;;5073660;28;20281;-80
2022/02/10 21:19:33;;;;;;;3.17;2.25;;;6.70;99.90;;;;;;5073965;28;20170;-78
2022/02/10 21:21:59;;;;;;;2.67;1.65;;;6.70;99.90;;;;;;5055141;28;20234;-81
2022/02/10 21:24:29;;;;;;;4.30;1.95;;;6.70;99.90;;;;;;5056055;28;20226;-78
2022/02/10 21:29:35;;;;;;;4.97;1.85;;;6.60;99.90;;;;;;5076637;28;20223;-80
2022/02/10 21:32:02;;;;;;;2.00;1.80;;;6.60;99.90;;;;;;5076893;28;20521;-84
2022/02/10 21:34:33;;;;;;;2.08;1.52;;;6.60;99.90;;;;;;5070708;28;20183;-79
2022/02/10 21:59:09;;;;;;;1.40;1.23;;;6.50;99.90;;;;;;5057784;28;20225;-76
2022/02/10 22:11:33;;;;;;;2.47;2.28;;;6.60;99.90;;;;;;5075774;28;20240;-76
2022/02/10 22:19:20;;;;;;;3.13;2.42;;;6.30;99.90;;;;;;5075201;28;20523;-76
2022/02/10 22:21:55;;;;;;;2.40;2.05;;;6.30;99.90;;;;;;5074907;28;20166;-76
2022/02/10 22:24:22;;;;;;;2.60;2.40;;;6.20;99.90;;;;;;5081660;28;20542;-76
2022/02/10 22:26:50;;;;;;;3.17;2.42;;;6.10;99.90;;;;;;5076944;28;20205;-77
2022/02/10 22:29:27;;;;;;;3.78;2.63;;;6.30;99.90;;;;;;5075870;28;20159;-76
2022/02/10 22:32:04;;;;;;;3.75;3.03;;;6.20;99.90;;;;;;5074134;28;20261;-76
2022/02/10 22:34:35;;;;;;;4.78;3.40;;;6.20;99.90;;;;;;5074094;28;20190;-76
2022/02/10 22:37:04;;;;;;;7.15;3.38;;;6.20;99.90;;;;;;5074543;28;20202;-78
2022/02/10 22:39:35;;;;;;;3.03;2.65;;;6.30;99.90;;;;;;5055609;28;20642;-76
2022/02/10 22:42:01;;;;;;;4.30;3.33;;;6.20;99.90;;;;;;5074214;28;20174;-77
2022/02/10 22:44:27;;;;;;;4.55;3.63;;;6.20;99.90;;;;;;5074047;28;20205;-81
2022/02/10 22:46:53;;;;;;;3.78;3.38;;;6.20;99.90;;;;;;5074474;28;20170;-76
2022/02/10 22:49:19;;;;;;;5.28;3.67;;;6.10;99.90;;;;;;5074359;28;20573;-76
2022/02/10 22:51:44;;;;;;;8.20;3.58;;;6.10;99.90;;;;;;5074098;28;20179;-76
2022/02/10 22:54:13;;;;;;;6.28;3.58;;;6.30;99.90;;;;;;5073825;28;20190;-76
2022/02/10 22:56:40;;;;;;;5.63;3.50;;;6.10;99.90;;;;;;5074167;28;20285;-76
2022/02/10 22:59:07;;;;;;;6.38;3.95;;;6.10;99.90;;;;;;5073995;28;20165;-76
2022/02/10 23:01:35;;;;;;;7.00;4.32;;;6.10;99.90;;;;;;5074259;28;20174;-76
2022/02/10 23:04:02;;;;;;;6.68;4.70;;;6.20;99.90;;;;;;5074543;28;20230;-85
2022/02/10 23:06:29;;;;;;;8.75;4.35;;;6.20;99.90;;;;;;5074211;28;20161;-76
2022/02/10 23:08:55;;;;;;;7.03;4.88;;;6.20;99.90;;;;;;5074445;28;20588;-80
2022/02/10 23:11:30;;;;;;;6.13;4.60;;;6.10;99.90;;;;;;5074015;28;20269;-78
2022/02/10 23:13:58;;;;;;;4.65;4.15;;;6.20;99.90;;;;;;5073710;28;20635;-76
2022/02/10 23:16:25;;;;;;;8.32;4.13;;;6.20;99.90;;;;;;5055672;28;20268;-79
2022/02/10 23:18:51;;;;;;;5.43;4.57;;;6.30;99.90;;;;;;5073532;28;20618;-76
2022/02/10 23:21:17;;;;;;;6.63;5.35;;;6.30;99.90;;;;;;5055904;28;20166;-76
2022/02/10 23:23:46;;;;;;;5.88;4.45;;;6.30;99.90;;;;;;5073748;28;20650;-76
2022/02/10 23:26:15;;;;;;;7.43;4.70;;;6.40;99.90;;;;;;5073820;28;20186;-82
2022/02/10 23:28:48;;;;;;;4.85;4.45;;;6.30;99.90;;;;;;5074170;28;20162;-76
2022/02/10 23:31:16;;;;;;;7.55;5.60;;;6.40;99.90;;;;;;5073952;28;20174;-76
2022/02/10 23:33:43;;;;;;;6.60;5.57;;;6.60;99.90;;;;;;5073705;28;20198;-76
2022/02/10 23:38:49;;;;;;;6.80;4.25;;;6.50;99.90;;;;;;5073609;28;20178;-75
2022/02/10 23:43:44;;;;;;;10.75;4.32;;;6.10;99.90;;;;;;5073760;28;20571;-76
2022/02/10 23:46:10;;;;;;;7.70;4.93;;;6.00;99.90;;;;;;5087234;28;20166;-76
2022/02/10 23:48:36;;;;;;;7.45;5.45;;;6.00;99.90;;;;;;5092993;28;20163;-75
2022/02/10 23:51:03;;;;;;;5.13;4.63;;;6.10;99.90;;;;;;5096261;28;20174;-77
2022/02/10 23:53:30;;;;;;;6.97;4.65;;;6.00;99.90;;;;;;5097729;28;20162;-77
2022/02/10 23:55:57;;;;;;;7.82;4.63;;;6.00;99.90;;;;;;5059578;28;20185;-76
